createdAt,value
2018-09-05T00:01:14.061Z,14.30
2018-09-05T00:03:42.499Z,14.30
2018-09-05T00:06:10.968Z,14.30
2018-09-05T00:08:39.424Z,14.30
2018-09-05T00:11:07.873Z,14.30
2018-09-05T00:13:36.344Z,14.30
2018-09-05T00:16:04.984Z,14.20
2018-09-05T00:18:33.412Z,14.20
2018-09-05T00:21:01.947Z,14.20
2018-09-05T00:23:30.397Z,14.20
2018-09-05T00:25:58.832Z,14.10
2018-09-05T00:28:27.385Z,14.10
2018-09-05T00:30:55.785Z,14.10
2018-09-05T00:33:24.212Z,14.00
2018-09-05T00:35:52.628Z,14.00
2018-09-05T00:38:21.105Z,14.00
2018-09-05T00:40:49.553Z,14.00
2018-09-05T00:43:17.984Z,13.90
2018-09-05T00:45:46.382Z,13.90
2018-09-05T00:48:14.826Z,13.90
2018-09-05T00:50:43.272Z,13.90
2018-09-05T00:53:11.693Z,13.90
2018-09-05T00:55:40.116Z,13.80
2018-09-05T00:58:08.557Z,13.80
2018-09-05T01:00:37.032Z,13.80
2018-09-05T01:03:05.507Z,13.70
2018-09-05T01:05:33.908Z,13.70
2018-09-05T01:08:02.345Z,13.70
2018-09-05T01:10:30.787Z,13.70
2018-09-05T01:12:59.366Z,13.60
2018-09-05T01:15:27.788Z,13.60
2018-09-05T01:17:56.247Z,13.50
2018-09-05T01:20:24.652Z,13.50
2018-09-05T01:22:53.384Z,13.40
2018-09-05T01:25:21.853Z,13.40
2018-09-05T01:27:50.305Z,13.30
2018-09-05T01:30:18.739Z,13.30
2018-09-05T01:32:47.190Z,13.30
2018-09-05T01:35:15.641Z,13.20
2018-09-05T01:37:44.182Z,13.30
2018-09-05T01:40:12.630Z,13.30
2018-09-05T01:42:41.081Z,13.30
2018-09-05T01:45:09.496Z,13.20
2018-09-05T01:47:37.903Z,13.20
2018-09-05T01:50:06.376Z,13.20
2018-09-05T01:52:34.786Z,13.20
2018-09-05T01:55:03.226Z,13.20
2018-09-05T01:57:31.636Z,13.10
2018-09-05T02:02:28.200Z,13.10
2018-09-05T02:04:56.804Z,13.00
2018-09-05T02:07:25.208Z,12.90
2018-09-05T02:09:53.656Z,12.90
2018-09-05T02:12:22.157Z,12.80
2018-09-05T02:14:50.600Z,12.80
2018-09-05T02:17:19.013Z,12.80
2018-09-05T02:19:47.445Z,12.80
2018-09-05T02:22:15.898Z,12.70
2018-09-05T02:24:44.324Z,12.70
2018-09-05T02:27:12.733Z,12.70
2018-09-05T02:29:41.350Z,12.70
2018-09-05T02:32:09.788Z,12.70
2018-09-05T02:34:38.223Z,12.70
2018-09-05T02:37:06.668Z,12.70
2018-09-05T02:39:35.141Z,12.60
2018-09-05T02:42:03.576Z,12.60
2018-09-05T02:44:32.060Z,12.60
2018-09-05T02:47:00.660Z,12.60
2018-09-05T02:49:29.101Z,12.50
2018-09-05T02:51:57.520Z,12.40
2018-09-05T02:56:54.104Z,12.40
2018-09-05T02:59:22.552Z,12.50
2018-09-05T03:01:51.014Z,12.40
2018-09-05T03:04:19.444Z,12.50
2018-09-05T03:06:47.857Z,12.40
2018-09-05T03:09:16.327Z,12.40
2018-09-05T03:11:44.760Z,12.40
2018-09-05T03:14:13.199Z,12.30
2018-09-05T03:16:41.601Z,12.30
2018-09-05T03:19:10.048Z,12.30
2018-09-05T03:21:38.460Z,12.30
2018-09-05T03:24:06.872Z,12.30
2018-09-05T03:26:35.339Z,12.30
2018-09-05T03:29:03.780Z,12.30
2018-09-05T03:31:32.225Z,12.20
2018-09-05T03:34:00.640Z,12.20
2018-09-05T03:36:29.062Z,12.20
2018-09-05T03:38:57.813Z,12.20
2018-09-05T03:43:54.459Z,12.20
2018-09-05T03:46:22.940Z,12.20
2018-09-05T03:48:51.912Z,12.20
2018-09-05T03:51:20.344Z,12.20
2018-09-05T03:53:48.773Z,12.20
2018-09-05T03:56:17.211Z,12.20
2018-09-05T03:58:45.605Z,12.10
2018-09-05T04:01:14.064Z,12.00
2018-09-05T04:03:42.478Z,12.00
2018-09-05T04:06:10.929Z,12.00
2018-09-05T04:08:39.345Z,12.00
2018-09-05T04:11:07.767Z,11.90
2018-09-05T04:13:36.162Z,11.80
2018-09-05T04:16:04.576Z,11.80
2018-09-05T04:18:32.989Z,11.80
2018-09-05T04:21:01.405Z,11.80
2018-09-05T04:26:02.247Z,11.70
2018-09-05T04:28:30.648Z,11.70
2018-09-05T04:30:59.101Z,11.70
2018-09-05T04:33:27.529Z,11.80
2018-09-05T04:35:55.964Z,11.80
2018-09-05T04:38:24.357Z,11.80
2018-09-05T04:40:52.777Z,11.80
2018-09-05T04:43:22.171Z,11.70
2018-09-05T04:45:50.713Z,11.70
2018-09-05T04:48:19.176Z,11.70
2018-09-05T04:50:47.581Z,11.70
2018-09-05T04:53:16.080Z,11.70
2018-09-05T04:55:44.489Z,11.80
2018-09-05T04:58:12.944Z,11.80
2018-09-05T05:00:41.396Z,11.90
2018-09-05T05:03:09.832Z,11.90
2018-09-05T05:05:38.525Z,12.00
2018-09-05T05:08:06.952Z,12.00
2018-09-05T05:10:35.369Z,12.10
2018-09-05T05:13:03.848Z,12.10
2018-09-05T05:15:32.244Z,12.00
2018-09-05T05:18:00.833Z,12.00
2018-09-05T05:20:29.266Z,12.00
2018-09-05T05:22:57.725Z,12.00
2018-09-05T05:25:26.139Z,12.10
2018-09-05T05:27:54.570Z,12.20
2018-09-05T05:32:51.453Z,12.30
2018-09-05T05:35:19.839Z,12.30
2018-09-05T05:37:48.333Z,12.50
2018-09-05T05:40:16.813Z,12.60
2018-09-05T05:42:45.304Z,12.70
2018-09-05T05:45:13.716Z,12.90
2018-09-05T05:47:42.160Z,13.00
2018-09-05T05:50:10.626Z,13.10
2018-09-05T05:52:39.110Z,13.20
2018-09-05T05:55:07.569Z,13.20
2018-09-05T05:57:36.036Z,13.40
2018-09-05T06:00:04.840Z,13.50
2018-09-05T06:02:33.276Z,13.60
2018-09-05T06:05:01.762Z,13.70
2018-09-05T06:07:30.209Z,13.80
2018-09-05T06:09:58.629Z,13.90
2018-09-05T06:12:27.378Z,14.10
2018-09-05T06:14:55.822Z,14.30
2018-09-05T06:17:24.333Z,14.40
2018-09-05T06:19:52.786Z,14.50
2018-09-05T06:22:21.209Z,14.60
2018-09-05T06:24:49.688Z,15.00
2018-09-05T06:27:18.172Z,15.70
2018-09-05T06:29:46.581Z,17.10
2018-09-05T06:32:15.029Z,18.60
2018-09-05T06:34:43.442Z,20.00
2018-09-05T06:37:11.882Z,21.30
2018-09-05T06:39:40.304Z,22.40
2018-09-05T06:42:08.709Z,22.50
2018-09-05T06:44:37.145Z,23.10
2018-09-05T06:47:05.584Z,23.90
2018-09-05T06:49:34.131Z,24.80
2018-09-05T06:52:02.552Z,26.20
2018-09-05T06:54:31.016Z,27.60
2018-09-05T06:56:59.481Z,28.60
2018-09-05T06:59:27.977Z,29.30
2018-09-05T07:01:56.469Z,29.80
2018-09-05T07:04:24.915Z,29.50
2018-09-05T07:06:53.341Z,29.40
2018-09-05T07:09:21.800Z,29.50
2018-09-05T07:11:50.199Z,29.80
2018-09-05T07:16:46.853Z,31.10
2018-09-05T07:19:15.325Z,31.50
2018-09-05T07:21:43.777Z,32.00
2018-09-05T07:24:12.224Z,32.40
2018-09-05T07:26:40.632Z,32.40
2018-09-05T07:29:09.086Z,32.60
2018-09-05T07:31:37.605Z,32.30
2018-09-05T07:34:06.209Z,32.30
2018-09-05T07:36:34.628Z,32.30
2018-09-05T07:39:03.561Z,31.90
2018-09-05T07:44:00.176Z,30.20
2018-09-05T07:46:28.614Z,29.40
2018-09-05T07:48:57.096Z,29.00
2018-09-05T07:51:25.507Z,28.50
2018-09-05T07:53:53.950Z,28.00
2018-09-05T07:56:22.364Z,27.40
2018-09-05T07:58:50.814Z,27.80
2018-09-05T08:01:19.332Z,28.40
2018-09-05T08:03:47.793Z,27.60
2018-09-05T08:06:16.326Z,27.10
2018-09-05T08:08:44.757Z,25.90
2018-09-05T08:11:13.257Z,25.70
2018-09-05T08:16:10.229Z,26.30
2018-09-05T08:18:38.647Z,26.60
2018-09-05T08:21:07.115Z,26.80
2018-09-05T08:23:35.564Z,26.80
2018-09-05T08:26:04.209Z,27.90
2018-09-05T08:28:32.664Z,28.80
2018-09-05T08:31:01.107Z,29.50
2018-09-05T08:33:29.500Z,29.40
2018-09-05T08:35:58.318Z,28.90
2018-09-05T08:38:26.635Z,28.80
2018-09-05T08:40:55.102Z,28.70
2018-09-05T08:43:23.529Z,28.40
2018-09-05T08:48:20.340Z,27.40
2018-09-05T08:50:48.730Z,26.80
2018-09-05T08:53:17.188Z,27.60
2018-09-05T08:55:45.721Z,27.90
2018-09-05T08:58:14.105Z,28.60
2018-09-05T09:00:42.584Z,28.40
2018-09-05T09:05:39.240Z,28.60
2018-09-05T09:08:07.688Z,29.50
2018-09-05T09:10:36.132Z,31.00
2018-09-05T09:15:33.072Z,32.40
2018-09-05T09:18:01.555Z,32.60
2018-09-05T09:20:30.021Z,33.40
2018-09-05T09:22:58.444Z,33.60
2018-09-05T09:25:26.903Z,34.00
2018-09-05T09:27:55.377Z,33.40
2018-09-05T09:30:23.835Z,32.20
2018-09-05T09:32:52.269Z,31.40
2018-09-05T09:35:20.762Z,31.30
2018-09-05T09:37:49.402Z,31.00
2018-09-05T09:40:17.841Z,31.10
2018-09-05T09:42:46.253Z,30.40
2018-09-05T09:47:42.806Z,30.30
2018-09-05T09:50:11.256Z,30.40
2018-09-05T09:52:39.820Z,31.00
2018-09-05T09:57:37.313Z,30.90
2018-09-05T10:00:06.750Z,31.40
2018-09-05T10:02:40.668Z,31.60
2018-09-05T10:05:14.577Z,32.30
2018-09-05T10:07:48.344Z,33.00
2018-09-05T10:10:22.558Z,33.40
2018-09-05T10:15:30.370Z,33.60
2018-09-05T10:18:04.301Z,33.20
2018-09-05T10:20:32.728Z,33.40
2018-09-05T10:23:01.175Z,32.90
2018-09-05T10:25:29.605Z,32.80
2018-09-05T10:27:58.084Z,33.20
2018-09-05T10:30:26.518Z,33.10
2018-09-05T10:32:55.003Z,33.00
2018-09-05T10:35:23.449Z,31.80
2018-09-05T10:37:51.932Z,31.10
2018-09-05T10:40:20.360Z,30.70
2018-09-05T10:42:48.788Z,31.30
2018-09-05T10:45:17.203Z,30.70
2018-09-05T10:47:45.652Z,29.80
2018-09-05T10:52:42.180Z,28.70
2018-09-05T10:55:10.585Z,27.80
2018-09-05T10:57:39.109Z,26.70
2018-09-05T11:00:07.638Z,25.90
2018-09-05T11:02:36.076Z,25.60
2018-09-05T11:05:04.556Z,25.20
2018-09-05T11:07:33.005Z,24.90
2018-09-05T11:10:01.408Z,24.50
2018-09-05T11:12:29.856Z,24.50
2018-09-05T11:14:58.277Z,24.40
2018-09-05T11:17:26.713Z,24.20
2018-09-05T11:19:55.132Z,24.10
2018-09-05T11:22:23.603Z,23.90
2018-09-05T11:27:20.276Z,23.70
2018-09-05T11:29:48.716Z,23.70
2018-09-05T11:32:17.145Z,23.50
2018-09-05T11:34:45.601Z,23.60
2018-09-05T11:37:14.053Z,23.40
2018-09-05T11:39:42.469Z,23.30
2018-09-05T11:44:39.119Z,23.10
2018-09-05T11:47:07.568Z,23.10
2018-09-05T11:49:36.222Z,22.90
2018-09-05T11:52:04.673Z,22.90
2018-09-05T11:54:33.153Z,23.00
2018-09-05T11:57:01.573Z,23.20
2018-09-05T11:59:30.075Z,23.30
2018-09-05T12:01:58.569Z,23.40
2018-09-05T12:04:27.018Z,23.50
2018-09-05T12:06:55.495Z,23.60
2018-09-05T12:09:24.000Z,23.50
2018-09-05T12:11:52.404Z,23.50
2018-09-05T12:14:20.946Z,23.50
2018-09-05T12:16:49.425Z,23.60
2018-09-05T12:19:17.897Z,23.80
2018-09-05T12:21:46.341Z,24.00
2018-09-05T12:24:14.808Z,24.00
2018-09-05T12:26:43.246Z,23.90
2018-09-05T12:31:42.248Z,23.80
2018-09-05T12:36:38.984Z,23.80
2018-09-05T12:41:36.650Z,23.70
2018-09-05T12:44:05.133Z,23.60
2018-09-05T12:46:33.564Z,23.70
2018-09-05T12:49:02.012Z,23.70
2018-09-05T12:51:30.713Z,23.70
2018-09-05T12:53:59.336Z,23.80
2018-09-05T12:56:28.357Z,23.80
2018-09-05T12:58:56.805Z,23.70
2018-09-05T13:01:25.323Z,23.60
2018-09-05T13:03:53.819Z,23.50
2018-09-05T13:06:22.360Z,23.50
2018-09-05T13:08:50.819Z,23.40
2018-09-05T13:11:19.263Z,23.40
2018-09-05T13:16:20.277Z,23.30
2018-09-05T13:18:48.724Z,23.40
2018-09-05T13:21:17.138Z,23.40
2018-09-05T13:26:13.812Z,23.30
2018-09-05T13:28:42.257Z,23.20
2018-09-05T13:31:10.719Z,23.10
2018-09-05T13:33:39.212Z,23.20
2018-09-05T13:36:07.724Z,23.30
2018-09-05T13:38:36.183Z,23.40
2018-09-05T13:43:32.708Z,23.40
2018-09-05T13:46:01.242Z,23.30
2018-09-05T13:48:29.701Z,23.20
2018-09-05T13:50:58.200Z,23.10
2018-09-05T13:53:26.664Z,23.00
2018-09-05T13:55:55.109Z,23.10
2018-09-05T13:58:23.576Z,23.20
2018-09-05T14:00:52.054Z,23.30
2018-09-05T14:05:48.622Z,23.20
2018-09-05T14:08:17.076Z,23.20
2018-09-05T14:10:45.542Z,23.10
2018-09-05T14:13:13.992Z,22.90
2018-09-05T14:18:10.606Z,22.80
2018-09-05T14:20:39.167Z,22.90
2018-09-05T14:23:07.716Z,23.00
2018-09-05T14:28:04.330Z,23.10
2018-09-05T14:30:32.786Z,23.10
2018-09-05T14:33:01.224Z,23.10
2018-09-05T14:35:29.718Z,23.10
2018-09-05T14:40:26.501Z,23.20
2018-09-05T14:42:54.928Z,23.20
2018-09-05T14:45:23.390Z,23.20
2018-09-05T14:47:51.877Z,23.20
2018-09-05T14:50:20.342Z,23.20
2018-09-05T14:52:48.873Z,23.20
2018-09-05T14:55:17.313Z,23.10
2018-09-05T14:57:45.956Z,23.10
2018-09-05T15:02:42.559Z,22.90
2018-09-05T15:05:11.018Z,22.70
2018-09-05T15:07:43.312Z,22.50
2018-09-05T15:10:11.765Z,22.40
2018-09-05T15:12:40.173Z,22.40
2018-09-05T15:15:08.685Z,22.50
2018-09-05T15:17:37.152Z,22.60
2018-09-05T15:20:06.976Z,22.70
2018-09-05T15:22:35.576Z,22.70
2018-09-05T15:25:04.192Z,22.70
2018-09-05T15:27:32.600Z,22.70
2018-09-05T15:30:01.049Z,22.70
2018-09-05T15:32:29.501Z,22.70
2018-09-05T15:34:58.026Z,22.80
2018-09-05T15:37:26.489Z,22.80
2018-09-05T15:39:55.004Z,22.80
2018-09-05T15:42:23.504Z,22.80
2018-09-05T15:44:52.160Z,22.80
2018-09-05T15:52:16.904Z,22.50
2018-09-05T15:54:45.344Z,22.40
2018-09-05T15:59:42.000Z,22.30
2018-09-05T16:07:07.533Z,22.50
2018-09-05T16:09:35.960Z,22.40
2018-09-05T16:12:04.459Z,22.40
2018-09-05T16:14:32.936Z,22.30
2018-09-05T16:17:01.377Z,22.20
2018-09-05T16:19:29.821Z,22.00
2018-09-05T16:24:26.445Z,21.80
2018-09-05T16:26:54.889Z,21.80
2018-09-05T16:29:23.318Z,21.70
2018-09-05T16:31:51.887Z,21.70
2018-09-05T16:34:20.365Z,21.60
2018-09-05T16:36:48.860Z,21.60
2018-09-05T16:39:17.335Z,21.60
2018-09-05T16:41:45.845Z,21.50
2018-09-05T16:51:38.784Z,21.40
2018-09-05T16:54:07.241Z,21.40
2018-09-05T16:56:35.781Z,21.40
2018-09-05T16:59:04.302Z,21.30
2018-09-05T17:01:33.433Z,21.30
2018-09-05T17:04:01.911Z,21.20
2018-09-05T17:06:30.360Z,21.20
2018-09-05T17:08:58.868Z,21.10
2018-09-05T17:11:27.329Z,21.00
2018-09-05T17:13:55.808Z,21.00
2018-09-05T17:16:24.272Z,20.90
2018-09-05T17:18:52.749Z,20.80
2018-09-05T17:23:49.361Z,20.70
2018-09-05T17:26:17.871Z,20.60
2018-09-05T17:28:46.331Z,20.50
2018-09-05T17:31:14.880Z,20.40
2018-09-05T17:33:43.466Z,20.40
2018-09-05T17:36:11.961Z,20.30
2018-09-05T17:38:40.475Z,20.10
2018-09-05T17:41:08.944Z,19.90
2018-09-05T17:43:37.425Z,19.80
2018-09-05T17:51:02.252Z,19.50
2018-09-05T17:55:58.928Z,19.30
2018-09-05T17:58:27.444Z,19.10
2018-09-05T18:00:56.208Z,19.00
2018-09-05T18:03:24.697Z,18.90
2018-09-05T18:05:53.121Z,18.80
2018-09-05T18:08:21.693Z,18.80
2018-09-05T18:10:50.094Z,18.70
2018-09-05T18:13:18.536Z,18.70
2018-09-05T18:15:46.993Z,18.60
2018-09-05T18:18:15.479Z,18.50
2018-09-05T18:20:43.945Z,18.50
2018-09-05T18:23:12.473Z,18.50
2018-09-05T18:25:40.926Z,18.40
2018-09-05T18:28:09.352Z,18.40
2018-09-05T18:30:37.800Z,18.30
2018-09-05T18:33:06.353Z,18.30
2018-09-05T18:35:34.809Z,18.20
2018-09-05T18:38:03.267Z,18.20
2018-09-05T18:40:32.281Z,18.10
2018-09-05T18:43:00.687Z,18.10
2018-09-05T18:45:29.137Z,18.10
2018-09-05T18:47:57.544Z,18.00
2018-09-05T18:50:26.001Z,18.00
2018-09-05T18:52:59.732Z,18.00
2018-09-05T18:55:28.181Z,17.90
2018-09-05T18:57:56.677Z,17.80
2018-09-05T19:00:25.364Z,17.80
2018-09-05T19:02:53.772Z,17.70
2018-09-05T19:05:22.212Z,17.70
2018-09-05T19:07:50.669Z,17.70
2018-09-05T19:10:19.151Z,17.60
2018-09-05T19:12:47.598Z,17.60
2018-09-05T19:15:16.900Z,17.50
2018-09-05T19:17:45.365Z,17.50
2018-09-05T19:20:13.824Z,17.50
2018-09-05T19:22:42.310Z,17.50
2018-09-05T19:25:10.751Z,17.40
2018-09-05T19:27:39.190Z,17.40
2018-09-05T19:30:07.672Z,17.30
2018-09-05T19:32:36.155Z,17.30
2018-09-05T19:35:04.976Z,17.20
2018-09-05T19:37:33.461Z,17.20
2018-09-05T19:40:01.924Z,17.10
2018-09-05T19:42:30.488Z,17.10
2018-09-05T19:44:58.937Z,17.10
2018-09-05T19:47:27.400Z,17.10
2018-09-05T19:52:24.043Z,17.00
2018-09-05T19:54:52.489Z,17.00
2018-09-05T19:57:20.917Z,16.90
2018-09-05T19:59:49.366Z,16.90
2018-09-05T20:02:17.824Z,16.80
2018-09-05T20:04:46.268Z,16.90
2018-09-05T20:09:42.910Z,16.70
2018-09-05T20:14:39.583Z,16.60
2018-09-05T20:17:07.981Z,16.60
2018-09-05T20:19:36.426Z,16.60
2018-09-05T20:22:05.340Z,16.60
2018-09-05T20:24:33.821Z,16.60
2018-09-05T20:29:30.405Z,16.50
2018-09-05T20:31:58.872Z,16.50
2018-09-05T20:34:27.281Z,16.50
2018-09-05T20:36:55.784Z,16.50
2018-09-05T20:39:24.200Z,16.50
2018-09-05T20:41:52.660Z,16.50
2018-09-05T20:46:49.224Z,16.50
2018-09-05T20:49:17.661Z,16.40
2018-09-05T20:51:46.128Z,16.40
2018-09-05T20:54:14.557Z,16.40
2018-09-05T20:56:43.004Z,16.30
2018-09-05T20:59:11.513Z,16.30
2018-09-05T21:01:40.001Z,16.20
2018-09-05T21:04:08.429Z,16.20
2018-09-05T21:06:36.860Z,16.10
2018-09-05T21:09:06.900Z,16.10
2018-09-05T21:11:35.345Z,16.00
2018-09-05T21:14:03.776Z,16.00
2018-09-05T21:16:32.240Z,16.00
2018-09-05T21:19:00.664Z,16.00
2018-09-05T21:21:29.093Z,16.00
2018-09-05T21:23:57.515Z,15.90
2018-09-05T21:26:26.127Z,15.90
2018-09-05T21:28:54.584Z,15.90
2018-09-05T21:31:23.028Z,15.80
2018-09-05T21:33:51.508Z,15.80
2018-09-05T21:36:19.995Z,15.80
2018-09-05T21:38:48.420Z,15.70
2018-09-05T21:41:16.873Z,15.70
2018-09-05T21:43:45.301Z,15.60
2018-09-05T21:48:41.889Z,15.50
2018-09-05T21:51:10.332Z,15.50
2018-09-05T21:56:06.969Z,15.50
2018-09-05T21:58:35.431Z,15.40
2018-09-05T22:01:03.895Z,15.50
2018-09-05T22:03:32.316Z,15.40
2018-09-05T22:06:00.721Z,15.30
2018-09-05T22:08:29.208Z,15.20
2018-09-05T22:11:01.833Z,15.10
2018-09-05T22:13:30.342Z,15.10
2018-09-05T22:15:58.703Z,15.00
2018-09-05T22:18:27.141Z,15.00
2018-09-05T22:20:55.592Z,15.00
2018-09-05T22:23:24.121Z,15.00
2018-09-05T22:25:52.534Z,15.00
2018-09-05T22:28:21.026Z,15.00
2018-09-05T22:30:49.465Z,15.00
2018-09-05T22:35:46.113Z,14.90
2018-09-05T22:38:14.590Z,14.80
2018-09-05T22:40:48.432Z,14.80
2018-09-05T22:43:28.149Z,14.80
2018-09-05T22:46:07.789Z,14.70
2018-09-05T22:48:49.072Z,14.70
2018-09-05T22:55:46.026Z,14.70
2018-09-05T22:59:24.753Z,14.70
2018-09-05T23:02:04.673Z,14.70
2018-09-05T23:04:45.915Z,14.60
2018-09-05T23:07:25.478Z,14.60
2018-09-05T23:11:06.378Z,14.50
2018-09-05T23:13:46.098Z,14.40
2018-09-05T23:17:23.101Z,14.40
2018-09-05T23:20:03.367Z,14.40
2018-09-05T23:22:43.057Z,14.40
2018-09-05T23:25:11.697Z,14.40
2018-09-05T23:27:40.218Z,14.30
2018-09-05T23:30:08.682Z,14.30
2018-09-05T23:35:05.329Z,14.10
2018-09-05T23:37:33.861Z,14.10
2018-09-05T23:40:02.320Z,14.00
2018-09-05T23:42:30.749Z,14.00
2018-09-05T23:44:59.193Z,14.00
2018-09-05T23:49:55.990Z,14.00
2018-09-05T23:52:24.474Z,14.00
2018-09-05T23:54:52.923Z,14.00
2018-09-05T23:57:21.418Z,14.00
2018-09-05T23:59:49.870Z,13.90
